Time,TemperatureF,DewpointF,PressureIn,WindDirection,WindDirectionDegrees,WindSpeedMPH,WindSpeedGustMPH,Humidity,HourlyPrecipIn,Conditions,Clouds,dailyrainin,SoftwareType,DateUTC
2013-10-22 00:06:00,59.0,53.5,29.97,NNW,337,1.1,-999.0,82,-99.99,,,0.00,Acu-Link.com,2013-10-22 05:06:00,
2013-10-22 00:22:00,58.6,54.1,29.97,ENE,67,2.2,-999.0,85,-99.99,,,0.00,Acu-Link.com,2013-10-22 05:22:00,
2013-10-22 00:37:00,58.5,54.0,29.98,NW,315,3.7,-999.0,85,-99.99,,,0.00,Acu-Link.com,2013-10-22 05:37:00,
2013-10-22 00:53:00,58.5,53.7,29.97,WNW,292,4.2,-999.0,84,-99.99,,,0.00,Acu-Link.com,2013-10-22 05:53:00,
2013-10-22 01:08:00,58.5,53.7,29.97,NE,45,3.7,-999.0,84,-99.99,,,0.00,Acu-Link.com,2013-10-22 06:08:00,
2013-10-22 01:23:00,58.3,53.2,29.98,NNE,22,1.7,-999.0,83,-99.99,,,0.00,Acu-Link.com,2013-10-22 06:23:00,
2013-10-22 01:38:00,58.1,53.0,29.98,NW,315,3.2,-999.0,83,-99.99,,,0.00,Acu-Link.com,2013-10-22 06:38:00,
2013-10-22 01:54:00,58.1,53.3,29.99,NNE,22,3.2,-999.0,84,-99.99,,,0.00,Acu-Link.com,2013-10-22 06:54:00,
2013-10-22 02:09:00,58.1,53.3,29.98,ESE,112,1.7,-999.0,84,-99.99,,,0.00,Acu-Link.com,2013-10-22 07:09:00,
2013-10-22 02:24:00,58.1,53.3,29.98,WNW,292,2.7,-999.0,84,-99.99,,,0.00,Acu-Link.com,2013-10-22 07:24:00,
2013-10-22 02:40:00,57.9,53.1,29.99,WNW,292,2.7,-999.0,84,-99.99,,,0.00,Acu-Link.com,2013-10-22 07:40:00,
2013-10-22 02:55:00,57.7,52.9,29.99,SW,225,3.2,-999.0,84,-99.99,,,0.00,Acu-Link.com,2013-10-22 07:55:00,
2013-10-22 03:11:00,57.6,53.1,29.99,West,270,6.3,-999.0,85,-99.99,,,0.00,Acu-Link.com,2013-10-22 08:11:00,
2013-10-22 03:27:00,57.4,52.9,29.99,West,270,2.7,-999.0,85,-99.99,,,0.00,Acu-Link.com,2013-10-22 08:27:00,
2013-10-22 03:42:00,57.0,52.9,29.99,NW,315,2.2,-999.0,86,-99.99,,,0.00,Acu-Link.com,2013-10-22 08:42:00,
2013-10-22 03:58:00,56.5,52.4,29.99,West,270,4.2,-999.0,86,-99.99,,,0.00,Acu-Link.com,2013-10-22 08:58:00,
2013-10-22 04:13:00,55.6,51.8,29.99,NE,45,3.7,-999.0,87,-99.99,,,0.00,Acu-Link.com,2013-10-22 09:13:00,
2013-10-22 04:28:00,54.9,51.4,29.99,West,270,3.2,-999.0,88,-99.99,,,0.00,Acu-Link.com,2013-10-22 09:28:00,
2013-10-22 04:44:00,51.3,47.9,29.99,WNW,292,2.7,-999.0,88,-99.99,,,0.00,Acu-Link.com,2013-10-22 09:44:00,
2013-10-22 04:59:00,50.9,47.5,29.99,WNW,292,3.7,-999.0,88,-99.99,,,0.00,Acu-Link.com,2013-10-22 09:59:00,
2013-10-22 05:14:00,50.5,47.1,30.00,NNW,337,2.7,-999.0,88,-99.99,,,0.00,Acu-Link.com,2013-10-22 10:14:00,
2013-10-22 05:29:00,50.2,47.1,30.00,West,270,1.7,-999.0,89,-99.99,,,0.00,Acu-Link.com,2013-10-22 10:29:00,
2013-10-22 05:44:00,49.8,46.7,30.00,West,270,1.7,-999.0,89,-99.99,,,0.00,Acu-Link.com,2013-10-22 10:44:00,
2013-10-22 05:59:00,49.3,46.2,30.01,WSW,247,2.7,-999.0,89,-99.99,,,0.00,Acu-Link.com,2013-10-22 10:59:00,
2013-10-22 06:15:00,49.1,46.3,30.02,SSW,202,1.7,-999.0,90,-99.99,,,0.00,Acu-Link.com,2013-10-22 11:15:00,
2013-10-22 06:30:00,48.4,45.6,30.02,NW,315,1.7,-999.0,90,-99.99,,,0.00,Acu-Link.com,2013-10-22 11:30:00,
2013-10-22 06:45:00,48.0,45.5,30.02,West,270,2.2,-999.0,91,-99.99,,,0.00,Acu-Link.com,2013-10-22 11:45:00,
2013-10-22 07:00:00,47.8,45.3,30.02,West,270,2.7,-999.0,91,-99.99,,,0.00,Acu-Link.com,2013-10-22 12:00:00,
2013-10-22 07:15:00,47.3,45.1,30.02,WSW,247,1.7,-999.0,92,-99.99,,,0.00,Acu-Link.com,2013-10-22 12:15:00,
2013-10-22 07:30:00,46.8,44.9,30.02,WNW,292,2.2,-999.0,93,-99.99,,,0.00,Acu-Link.com,2013-10-22 12:30:00,
2013-10-22 07:46:00,46.6,44.7,30.02,West,270,2.2,-999.0,93,-99.99,,,0.00,Acu-Link.com,2013-10-22 12:46:00,
2013-10-22 08:01:00,46.8,44.9,30.02,WNW,292,1.7,-999.0,93,-99.99,,,0.00,Acu-Link.com,2013-10-22 13:01:00,
2013-10-22 08:16:00,48.6,45.5,30.02,West,270,2.7,-999.0,89,-99.99,,,0.00,Acu-Link.com,2013-10-22 13:16:00,
2013-10-22 08:32:00,49.3,45.6,30.03,West,270,1.7,-999.0,87,-99.99,,,0.00,Acu-Link.com,2013-10-22 13:32:00,
2013-10-22 08:47:00,52.0,46.4,30.03,WNW,292,1.7,-999.0,81,-99.99,,,0.00,Acu-Link.com,2013-10-22 13:47:00,
2013-10-22 09:03:00,55.9,46.6,30.04,NE,45,2.7,-999.0,71,-99.99,,,0.00,Acu-Link.com,2013-10-22 14:03:00,
2013-10-22 09:18:00,58.8,45.8,30.04,NW,315,3.7,-999.0,62,-99.99,,,0.00,Acu-Link.com,2013-10-22 14:18:00,
2013-10-22 09:33:00,61.5,45.2,30.04,West,270,1.7,-999.0,55,-99.99,,,0.00,Acu-Link.com,2013-10-22 14:33:00,
2013-10-22 09:48:00,64.4,45.4,30.05,NW,315,2.7,-999.0,50,-99.99,,,0.00,Acu-Link.com,2013-10-22 14:48:00,
2013-10-22 10:03:00,59.5,44.3,30.05,NNE,22,4.2,-999.0,57,-99.99,,,0.00,Acu-Link.com,2013-10-22 15:03:00,
2013-10-22 10:18:00,63.3,44.9,30.05,WSW,247,3.2,-999.0,51,-99.99,,,0.00,Acu-Link.com,2013-10-22 15:18:00,
2013-10-22 10:33:00,61.5,43.2,30.05,WNW,292,2.7,-999.0,51,-99.99,,,0.00,Acu-Link.com,2013-10-22 15:33:00,
2013-10-22 10:48:00,62.2,44.4,30.06,SSW,202,1.1,-999.0,52,-99.99,,,0.00,Acu-Link.com,2013-10-22 15:48:00,
2013-10-22 11:04:00,63.7,44.2,30.06,WSW,247,4.7,-999.0,49,-99.99,,,0.00,Acu-Link.com,2013-10-22 16:04:00,
2013-10-22 11:19:00,65.3,43.4,30.05,SW,225,2.7,-999.0,45,-99.99,,,0.00,Acu-Link.com,2013-10-22 16:19:00,
2013-10-22 11:34:00,66.7,44.1,30.04,ESE,112,2.2,-999.0,44,-99.99,,,0.00,Acu-Link.com,2013-10-22 16:34:00,
2013-10-22 11:50:00,68.0,44.0,30.04,NNE,22,3.7,-999.0,42,-99.99,,,0.00,Acu-Link.com,2013-10-22 16:50:00,
2013-10-22 12:05:00,68.5,43.9,30.03,WNW,292,1.7,-999.0,41,-99.99,,,0.00,Acu-Link.com,2013-10-22 17:05:00,
2013-10-22 12:20:00,69.8,43.7,30.03,WSW,247,5.8,-999.0,39,-99.99,,,0.00,Acu-Link.com,2013-10-22 17:20:00,
2013-10-22 12:35:00,72.0,43.6,30.03,NW,315,4.2,-999.0,36,-99.99,,,0.00,Acu-Link.com,2013-10-22 17:35:00,
2013-10-22 12:50:00,71.8,41.9,30.02,East,90,3.7,-999.0,34,-99.99,,,0.00,Acu-Link.com,2013-10-22 17:50:00,
2013-10-22 13:05:00,72.0,42.1,30.01,North,0,2.2,-999.0,34,-99.99,,,0.00,Acu-Link.com,2013-10-22 18:05:00,
2013-10-22 13:21:00,72.5,40.1,30.01,ESE,112,2.2,-999.0,31,-99.99,,,0.00,Acu-Link.com,2013-10-22 18:21:00,
2013-10-22 13:36:00,73.8,42.9,30.00,West,270,3.2,-999.0,33,-99.99,,,0.00,Acu-Link.com,2013-10-22 18:36:00,
2013-10-22 13:51:00,74.3,41.7,30.00,NNE,22,3.2,-999.0,31,-99.99,,,0.00,Acu-Link.com,2013-10-22 18:51:00,
2013-10-22 14:06:00,74.3,42.5,29.99,ESE,112,3.7,-999.0,32,-99.99,,,0.00,Acu-Link.com,2013-10-22 19:06:00,
2013-10-22 14:22:00,75.0,43.1,29.98,NNW,337,2.7,-999.0,32,-99.99,,,0.00,Acu-Link.com,2013-10-22 19:22:00,
2013-10-22 14:37:00,75.4,42.6,29.97,West,270,1.7,-999.0,31,-99.99,,,0.00,Acu-Link.com,2013-10-22 19:37:00,
2013-10-22 14:53:00,74.7,41.2,29.97,SE,135,2.7,-999.0,30,-99.99,,,0.00,Acu-Link.com,2013-10-22 19:53:00,
2013-10-22 15:08:00,75.7,42.9,29.97,SW,225,2.7,-999.0,31,-99.99,,,0.00,Acu-Link.com,2013-10-22 20:08:00,
2013-10-22 15:23:00,75.2,40.7,29.97,NE,45,5.3,-999.0,29,-99.99,,,0.00,Acu-Link.com,2013-10-22 20:23:00,
2013-10-22 15:38:00,75.4,41.8,29.97,West,270,3.7,-999.0,30,-99.99,,,0.00,Acu-Link.com,2013-10-22 20:38:00,
2013-10-22 15:54:00,75.2,40.7,29.97,WNW,292,4.2,-999.0,29,-99.99,,,0.00,Acu-Link.com,2013-10-22 20:54:00,
2013-10-22 16:09:00,74.7,40.3,29.97,ENE,67,2.7,-999.0,29,-99.99,,,0.00,Acu-Link.com,2013-10-22 21:09:00,
2013-10-22 16:24:00,74.8,40.4,29.97,NNW,337,3.7,-999.0,29,-99.99,,,0.00,Acu-Link.com,2013-10-22 21:24:00,
2013-10-22 16:39:00,75.2,41.6,29.97,NNE,22,2.2,-999.0,30,-99.99,,,0.00,Acu-Link.com,2013-10-22 21:39:00,
2013-10-22 16:54:00,74.3,40.8,29.97,NE,45,1.7,-999.0,30,-99.99,,,0.00,Acu-Link.com,2013-10-22 21:54:00,
2013-10-22 17:10:00,73.4,40.1,29.98,ESE,112,2.7,-999.0,30,-99.99,,,0.00,Acu-Link.com,2013-10-22 22:10:00,
2013-10-22 17:25:00,73.6,41.9,29.97,East,90,1.7,-999.0,32,-99.99,,,0.00,Acu-Link.com,2013-10-22 22:25:00,
2013-10-22 17:40:00,73.4,41.7,29.97,WNW,292,1.1,-999.0,32,-99.99,,,0.00,Acu-Link.com,2013-10-22 22:40:00,
2013-10-22 17:55:00,72.3,40.8,29.97,North,0,0.0,-999.0,32,-99.99,,,0.00,Acu-Link.com,2013-10-22 22:55:00,
2013-10-22 18:11:00,71.1,42.8,29.97,NW,315,0.0,-999.0,36,-99.99,,,0.00,Acu-Link.com,2013-10-22 23:11:00,
2013-10-22 18:26:00,69.8,42.3,29.97,South,180,0.0,-999.0,37,-99.99,,,0.00,Acu-Link.com,2013-10-22 23:26:00,
2013-10-22 18:41:00,71.4,42.3,29.98,NNE,22,0.0,-999.0,35,-99.99,,,0.00,Acu-Link.com,2013-10-22 23:41:00,
2013-10-22 18:57:00,68.7,44.7,29.97,SW,225,0.0,-999.0,42,-99.99,,,0.00,Acu-Link.com,2013-10-22 23:57:00,
2013-10-22 19:12:00,65.7,42.6,29.98,ESE,112,0.0,-999.0,43,-99.99,,,0.00,Acu-Link.com,2013-10-23 00:12:00,
2013-10-22 19:27:00,63.0,43.0,29.98,East,90,0.0,-999.0,48,-99.99,,,0.00,Acu-Link.com,2013-10-23 00:27:00,
2013-10-22 19:42:00,61.3,40.9,29.98,SSE,157,0.0,-999.0,47,-99.99,,,0.00,Acu-Link.com,2013-10-23 00:42:00,
2013-10-22 19:57:00,60.3,40.5,29.98,NW,315,0.0,-999.0,48,-99.99,,,0.00,Acu-Link.com,2013-10-23 00:57:00,
2013-10-22 20:13:00,58.5,43.3,29.99,WSW,247,1.1,-999.0,57,-99.99,,,0.00,Acu-Link.com,2013-10-23 01:13:00,
2013-10-22 20:28:00,58.3,43.6,29.99,WSW,247,1.1,-999.0,58,-99.99,,,0.00,Acu-Link.com,2013-10-23 01:28:00,
2013-10-22 20:43:00,57.7,44.3,30.00,ESE,112,0.0,-999.0,61,-99.99,,,0.00,Acu-Link.com,2013-10-23 01:43:00,
2013-10-22 20:58:00,55.9,44.7,30.00,West,270,1.7,-999.0,66,-99.99,,,0.00,Acu-Link.com,2013-10-23 01:58:00,
2013-10-22 21:14:00,55.6,44.4,30.00,West,270,1.7,-999.0,66,-99.99,,,0.00,Acu-Link.com,2013-10-23 02:14:00,
2013-10-22 21:29:00,55.0,44.6,30.00,West,270,2.2,-999.0,68,-99.99,,,0.00,Acu-Link.com,2013-10-23 02:29:00,
2013-10-22 21:44:00,54.5,44.5,30.01,WSW,247,1.7,-999.0,69,-99.99,,,0.00,Acu-Link.com,2013-10-23 02:44:00,
2013-10-22 21:59:00,54.5,44.2,30.01,West,270,1.7,-999.0,68,-99.99,,,0.00,Acu-Link.com,2013-10-23 02:59:00,
2013-10-22 22:14:00,54.5,43.8,30.01,West,270,1.7,-999.0,67,-99.99,,,0.00,Acu-Link.com,2013-10-23 03:14:00,
2013-10-22 22:30:00,54.1,43.8,30.01,West,270,1.7,-999.0,68,-99.99,,,0.00,Acu-Link.com,2013-10-23 03:30:00,
2013-10-22 22:45:00,53.4,43.9,30.02,West,270,2.2,-999.0,70,-99.99,,,0.00,Acu-Link.com,2013-10-23 03:45:00,
2013-10-22 23:00:00,53.4,44.6,30.02,WSW,247,2.7,-999.0,72,-99.99,,,0.00,Acu-Link.com,2013-10-23 04:00:00,
2013-10-22 23:15:00,53.1,44.7,30.02,WSW,247,1.7,-999.0,73,-99.99,,,0.00,Acu-Link.com,2013-10-23 04:15:00,
2013-10-22 23:30:00,52.9,44.5,30.02,West,270,2.2,-999.0,73,-99.99,,,0.00,Acu-Link.com,2013-10-23 04:30:00,
2013-10-22 23:45:00,52.2,43.8,30.02,West,270,2.2,-999.0,73,-99.99,,,0.00,Acu-Link.com,2013-10-23 04:45:00,